CYLW/YLW METAR and TAF weather

Enter ICAO airport designator
Station Type Date Time Source
CYLW METAR 2019/02/20 08:00 UTC NOAA

CYLW 200800Z AUTO VRB02KT 3SM -SN SCT019 BKN032 OVC080 M05/M06 A2983 RMK SLP128


Station Type Date Time Source
CYLW Decoded METAR 2019/02/20 08:00 UTC NOAA

Kelowna Airport, Canada (CYLW) 49-58N 119-23W 430M
Feb 20, 2019 - 03:00 AM EST / 2019.02.20 0800 UTC
Wind: Variable at 2 MPH (2 KT):0
Visibility: 3 mile(s):0
Sky conditions: overcast
Weather: light snow
Temperature: 23 F (-5 C)
Dew Point: 21 F (-6 C)
Relative Humidity: 92%
Pressure (altimeter): 29.83 in. Hg (1010 hPa)
ob: CYLW 200800Z AUTO VRB02KT 3SM -SN SCT019 BKN032 OVC080 M05/M06 A2983 RMK SLP128
cycle: 8

Station Type Date Time Source
CYLW TAF 2019/02/20 07:39 UTC NOAA

TAF CYLW 200638Z 2007/2019 VRB03KT P6SM -SN SCT012 OVC050
TEMPO 2007/2018 2SM -SN BR BKN008 OVC050
FM201800 VRB03KT P6SM SCT015 BKN050
TEMPO 2018/2019 4SM -SN BR BKN015
RMK FCST BASED ON AUTO OBS. NXT FCST BY 201300Z


Example: see airport list